sensor_id;sensor_type;location;lat;lon;timestamp;P1;durP1;ratioP1;P2;durP2;ratioP2
22287;SDS011;11312;51.464;6.968;2023-04-05T00:00:36;7.53;;;2.88;;
22287;SDS011;11312;51.464;6.968;2023-04-05T00:03:01;6.35;;;2.45;;
22287;SDS011;11312;51.464;6.968;2023-04-05T00:05:28;5.47;;;2.25;;
22287;SDS011;11312;51.464;6.968;2023-04-05T00:08:01;7.68;;;3.08;;
22287;SDS011;11312;51.464;6.968;2023-04-05T00:10:28;5.80;;;2.40;;
22287;SDS011;11312;51.464;6.968;2023-04-05T00:12:55;5.05;;;2.30;;
22287;SDS011;11312;51.464;6.968;2023-04-05T00:15:22;5.60;;;2.30;;
22287;SDS011;11312;51.464;6.968;2023-04-05T00:17:48;7.68;;;2.92;;
22287;SDS011;11312;51.464;6.968;2023-04-05T00:20:14;7.45;;;3.13;;
22287;SDS011;11312;51.464;6.968;2023-04-05T00:22:40;6.75;;;2.67;;
22287;SDS011;11312;51.464;6.968;2023-04-05T00:25:10;5.53;;;2.28;;
22287;SDS011;11312;51.464;6.968;2023-04-05T00:27:36;6.75;;;2.72;;
22287;SDS011;11312;51.464;6.968;2023-04-05T00:30:02;6.80;;;2.78;;
22287;SDS011;11312;51.464;6.968;2023-04-05T00:32:28;6.50;;;2.63;;
22287;SDS011;11312;51.464;6.968;2023-04-05T00:34:54;6.28;;;2.63;;
22287;SDS011;11312;51.464;6.968;2023-04-05T00:37:20;6.20;;;2.55;;
22287;SDS011;11312;51.464;6.968;2023-04-05T00:39:46;5.55;;;2.25;;
22287;SDS011;11312;51.464;6.968;2023-04-05T00:42:12;5.53;;;2.22;;
22287;SDS011;11312;51.464;6.968;2023-04-05T00:44:38;5.18;;;2.20;;
22287;SDS011;11312;51.464;6.968;2023-04-05T00:47:04;7.03;;;2.80;;
22287;SDS011;11312;51.464;6.968;2023-04-05T00:49:34;6.10;;;2.58;;
22287;SDS011;11312;51.464;6.968;2023-04-05T00:52:00;7.22;;;2.80;;
22287;SDS011;11312;51.464;6.968;2023-04-05T00:54:27;7.03;;;2.72;;
22287;SDS011;11312;51.464;6.968;2023-04-05T00:56:57;7.07;;;2.85;;
22287;SDS011;11312;51.464;6.968;2023-04-05T00:59:26;8.27;;;3.63;;
22287;SDS011;11312;51.464;6.968;2023-04-05T01:01:57;6.18;;;2.35;;
22287;SDS011;11312;51.464;6.968;2023-04-05T01:04:27;5.65;;;2.33;;
22287;SDS011;11312;51.464;6.968;2023-04-05T01:07:12;11.15;;;3.85;;
22287;SDS011;11312;51.464;6.968;2023-04-05T01:12:15;6.40;;;2.47;;
22287;SDS011;11312;51.464;6.968;2023-04-05T01:14:43;5.85;;;2.50;;
22287;SDS011;11312;51.464;6.968;2023-04-05T01:17:10;5.80;;;2.33;;
22287;SDS011;11312;51.464;6.968;2023-04-05T01:19:36;7.38;;;3.03;;
22287;SDS011;11312;51.464;6.968;2023-04-05T01:24:56;6.03;;;2.25;;
22287;SDS011;11312;51.464;6.968;2023-04-05T01:27:55;7.03;;;2.63;;
22287;SDS011;11312;51.464;6.968;2023-04-05T01:30:35;17.33;;;3.13;;
22287;SDS011;11312;51.464;6.968;2023-04-05T01:33:24;7.20;;;2.55;;
22287;SDS011;11312;51.464;6.968;2023-04-05T01:36:00;6.82;;;2.60;;
22287;SDS011;11312;51.464;6.968;2023-04-05T01:38:40;6.78;;;2.83;;
22287;SDS011;11312;51.464;6.968;2023-04-05T01:41:10;6.18;;;2.53;;
22287;SDS011;11312;51.464;6.968;2023-04-05T01:43:35;6.60;;;2.42;;
22287;SDS011;11312;51.464;6.968;2023-04-05T01:46:01;7.95;;;3.08;;
22287;SDS011;11312;51.464;6.968;2023-04-05T01:48:27;7.28;;;2.90;;
22287;SDS011;11312;51.464;6.968;2023-04-05T01:50:53;11.90;;;3.08;;
22287;SDS011;11312;51.464;6.968;2023-04-05T01:53:18;8.15;;;2.70;;
22287;SDS011;11312;51.464;6.968;2023-04-05T01:55:44;17.10;;;4.05;;
22287;SDS011;11312;51.464;6.968;2023-04-05T01:58:10;10.43;;;3.10;;
22287;SDS011;11312;51.464;6.968;2023-04-05T02:00:35;7.38;;;2.97;;
22287;SDS011;11312;51.464;6.968;2023-04-05T02:03:01;7.93;;;3.13;;
22287;SDS011;11312;51.464;6.968;2023-04-05T02:05:27;8.27;;;3.72;;
22287;SDS011;11312;51.464;6.968;2023-04-05T02:07:52;6.45;;;2.88;;
22287;SDS011;11312;51.464;6.968;2023-04-05T02:10:18;7.10;;;3.00;;
22287;SDS011;11312;51.464;6.968;2023-04-05T02:12:46;7.32;;;2.90;;
22287;SDS011;11312;51.464;6.968;2023-04-05T02:15:12;8.75;;;3.55;;
22287;SDS011;11312;51.464;6.968;2023-04-05T02:17:37;5.60;;;2.33;;
22287;SDS011;11312;51.464;6.968;2023-04-05T02:20:07;6.45;;;2.53;;
22287;SDS011;11312;51.464;6.968;2023-04-05T02:22:36;7.10;;;2.60;;
22287;SDS011;11312;51.464;6.968;2023-04-05T02:25:04;7.30;;;2.90;;
22287;SDS011;11312;51.464;6.968;2023-04-05T02:27:32;7.47;;;2.97;;
22287;SDS011;11312;51.464;6.968;2023-04-05T02:29:58;10.18;;;4.60;;
22287;SDS011;11312;51.464;6.968;2023-04-05T02:32:24;7.03;;;2.70;;
22287;SDS011;11312;51.464;6.968;2023-04-05T02:34:50;6.53;;;2.65;;
22287;SDS011;11312;51.464;6.968;2023-04-05T02:37:16;8.63;;;2.97;;
22287;SDS011;11312;51.464;6.968;2023-04-05T02:39:43;11.73;;;3.40;;
22287;SDS011;11312;51.464;6.968;2023-04-05T02:42:08;7.40;;;2.97;;
22287;SDS011;11312;51.464;6.968;2023-04-05T02:44:34;9.32;;;3.20;;
22287;SDS011;11312;51.464;6.968;2023-04-05T02:47:00;8.23;;;2.90;;
22287;SDS011;11312;51.464;6.968;2023-04-05T02:49:25;6.32;;;2.42;;
22287;SDS011;11312;51.464;6.968;2023-04-05T02:51:51;6.68;;;2.80;;
22287;SDS011;11312;51.464;6.968;2023-04-05T02:54:16;6.43;;;2.88;;
22287;SDS011;11312;51.464;6.968;2023-04-05T02:56:42;8.13;;;3.10;;
22287;SDS011;11312;51.464;6.968;2023-04-05T02:59:08;7.72;;;3.22;;
22287;SDS011;11312;51.464;6.968;2023-04-05T03:01:34;7.75;;;2.97;;
22287;SDS011;11312;51.464;6.968;2023-04-05T03:04:01;7.45;;;2.95;;
22287;SDS011;11312;51.464;6.968;2023-04-05T03:06:26;7.47;;;2.95;;
22287;SDS011;11312;51.464;6.968;2023-04-05T03:08:52;5.75;;;2.53;;
22287;SDS011;11312;51.464;6.968;2023-04-05T03:11:19;7.13;;;2.92;;
22287;SDS011;11312;51.464;6.968;2023-04-05T03:13:45;7.22;;;2.75;;
22287;SDS011;11312;51.464;6.968;2023-04-05T03:16:11;7.15;;;2.80;;
22287;SDS011;11312;51.464;6.968;2023-04-05T03:18:36;7.13;;;2.97;;
22287;SDS011;11312;51.464;6.968;2023-04-05T03:21:02;7.35;;;2.90;;
22287;SDS011;11312;51.464;6.968;2023-04-05T03:23:29;5.32;;;2.42;;
22287;SDS011;11312;51.464;6.968;2023-04-05T03:28:27;9.80;;;3.88;;
22287;SDS011;11312;51.464;6.968;2023-04-05T03:30:54;7.65;;;3.30;;
22287;SDS011;11312;51.464;6.968;2023-04-05T03:33:20;8.30;;;3.60;;
22287;SDS011;11312;51.464;6.968;2023-04-05T03:35:46;7.50;;;2.92;;
22287;SDS011;11312;51.464;6.968;2023-04-05T03:38:12;9.68;;;3.47;;
22287;SDS011;11312;51.464;6.968;2023-04-05T03:40:37;7.35;;;2.85;;
22287;SDS011;11312;51.464;6.968;2023-04-05T03:43:03;16.13;;;3.90;;
22287;SDS011;11312;51.464;6.968;2023-04-05T03:45:29;7.05;;;3.20;;
22287;SDS011;11312;51.464;6.968;2023-04-05T03:47:55;6.95;;;2.67;;
22287;SDS011;11312;51.464;6.968;2023-04-05T03:50:22;5.85;;;2.38;;
22287;SDS011;11312;51.464;6.968;2023-04-05T03:52:47;7.63;;;3.13;;
22287;SDS011;11312;51.464;6.968;2023-04-05T03:55:13;9.15;;;3.63;;
22287;SDS011;11312;51.464;6.968;2023-04-05T03:57:41;6.75;;;2.60;;
22287;SDS011;11312;51.464;6.968;2023-04-05T04:00:07;7.60;;;3.20;;
22287;SDS011;11312;51.464;6.968;2023-04-05T04:02:40;7.22;;;2.90;;
22287;SDS011;11312;51.464;6.968;2023-04-05T04:05:11;7.70;;;3.15;;
22287;SDS011;11312;51.464;6.968;2023-04-05T04:07:37;6.53;;;2.60;;
22287;SDS011;11312;51.464;6.968;2023-04-05T04:10:03;7.32;;;2.95;;
22287;SDS011;11312;51.464;6.968;2023-04-05T04:12:29;6.28;;;2.42;;
22287;SDS011;11312;51.464;6.968;2023-04-05T04:14:55;9.15;;;3.75;;
22287;SDS011;11312;51.464;6.968;2023-04-05T04:17:30;12.68;;;3.70;;
22287;SDS011;11312;51.464;6.968;2023-04-05T04:19:57;9.38;;;4.35;;
22287;SDS011;11312;51.464;6.968;2023-04-05T04:22:24;9.10;;;3.40;;
22287;SDS011;11312;51.464;6.968;2023-04-05T04:25:03;8.65;;;3.53;;
22287;SDS011;11312;51.464;6.968;2023-04-05T04:27:33;9.10;;;3.72;;
22287;SDS011;11312;51.464;6.968;2023-04-05T04:30:00;8.20;;;3.28;;
22287;SDS011;11312;51.464;6.968;2023-04-05T04:32:28;8.23;;;2.92;;
22287;SDS011;11312;51.464;6.968;2023-04-05T04:35:16;9.20;;;4.20;;
22287;SDS011;11312;51.464;6.968;2023-04-05T04:40:28;7.13;;;2.88;;
22287;SDS011;11312;51.464;6.968;2023-04-05T04:43:07;7.65;;;3.10;;
22287;SDS011;11312;51.464;6.968;2023-04-05T04:45:38;9.15;;;3.75;;
22287;SDS011;11312;51.464;6.968;2023-04-05T04:48:04;7.25;;;2.97;;
22287;SDS011;11312;51.464;6.968;2023-04-05T04:50:31;7.97;;;3.25;;
22287;SDS011;11312;51.464;6.968;2023-04-05T04:52:57;7.10;;;3.10;;
22287;SDS011;11312;51.464;6.968;2023-04-05T04:55:24;8.32;;;3.17;;
22287;SDS011;11312;51.464;6.968;2023-04-05T04:57:53;9.77;;;3.55;;
22287;SDS011;11312;51.464;6.968;2023-04-05T05:00:20;7.57;;;3.03;;
22287;SDS011;11312;51.464;6.968;2023-04-05T05:02:46;6.90;;;2.90;;
22287;SDS011;11312;51.464;6.968;2023-04-05T05:05:12;6.88;;;2.63;;
22287;SDS011;11312;51.464;6.968;2023-04-05T05:07:39;6.07;;;2.42;;
22287;SDS011;11312;51.464;6.968;2023-04-05T05:10:09;7.82;;;3.28;;
22287;SDS011;11312;51.464;6.968;2023-04-05T05:12:36;7.50;;;2.92;;
22287;SDS011;11312;51.464;6.968;2023-04-05T05:15:05;6.70;;;2.78;;
22287;SDS011;11312;51.464;6.968;2023-04-05T05:17:31;9.43;;;3.30;;
22287;SDS011;11312;51.464;6.968;2023-04-05T05:19:56;8.05;;;3.35;;
22287;SDS011;11312;51.464;6.968;2023-04-05T05:22:24;8.65;;;3.10;;
22287;SDS011;11312;51.464;6.968;2023-04-05T05:24:51;8.52;;;3.45;;
22287;SDS011;11312;51.464;6.968;2023-04-05T05:27:17;6.85;;;2.88;;
22287;SDS011;11312;51.464;6.968;2023-04-05T05:29:43;8.00;;;3.25;;
22287;SDS011;11312;51.464;6.968;2023-04-05T05:32:08;8.80;;;3.55;;
22287;SDS011;11312;51.464;6.968;2023-04-05T05:34:38;6.97;;;2.75;;
22287;SDS011;11312;51.464;6.968;2023-04-05T05:37:05;7.88;;;3.30;;
22287;SDS011;11312;51.464;6.968;2023-04-05T05:39:31;7.07;;;2.90;;
22287;SDS011;11312;51.464;6.968;2023-04-05T05:41:57;8.25;;;3.47;;
22287;SDS011;11312;51.464;6.968;2023-04-05T05:44:22;8.05;;;3.05;;
22287;SDS011;11312;51.464;6.968;2023-04-05T05:46:48;6.28;;;2.60;;
22287;SDS011;11312;51.464;6.968;2023-04-05T05:49:16;7.45;;;3.20;;
22287;SDS011;11312;51.464;6.968;2023-04-05T05:51:41;8.93;;;3.90;;
22287;SDS011;11312;51.464;6.968;2023-04-05T05:54:07;7.38;;;3.17;;
22287;SDS011;11312;51.464;6.968;2023-04-05T05:56:33;8.25;;;3.75;;
22287;SDS011;11312;51.464;6.968;2023-04-05T05:58:58;10.63;;;4.65;;
22287;SDS011;11312;51.464;6.968;2023-04-05T06:01:25;8.55;;;3.78;;
22287;SDS011;11312;51.464;6.968;2023-04-05T06:03:53;7.53;;;3.17;;
22287;SDS011;11312;51.464;6.968;2023-04-05T06:06:19;18.20;;;3.67;;
22287;SDS011;11312;51.464;6.968;2023-04-05T06:08:46;8.23;;;3.80;;
22287;SDS011;11312;51.464;6.968;2023-04-05T06:11:18;6.00;;;2.53;;
22287;SDS011;11312;51.464;6.968;2023-04-05T06:13:45;6.28;;;2.42;;
22287;SDS011;11312;51.464;6.968;2023-04-05T06:16:11;7.82;;;3.42;;
22287;SDS011;11312;51.464;6.968;2023-04-05T06:18:37;7.85;;;3.35;;
22287;SDS011;11312;51.464;6.968;2023-04-05T06:21:02;12.57;;;3.47;;
22287;SDS011;11312;51.464;6.968;2023-04-05T06:23:28;16.13;;;3.28;;
22287;SDS011;11312;51.464;6.968;2023-04-05T06:25:54;5.88;;;2.30;;
22287;SDS011;11312;51.464;6.968;2023-04-05T06:28:21;6.05;;;2.55;;
22287;SDS011;11312;51.464;6.968;2023-04-05T06:30:46;6.30;;;2.58;;
22287;SDS011;11312;51.464;6.968;2023-04-05T06:33:12;6.10;;;2.10;;
22287;SDS011;11312;51.464;6.968;2023-04-05T06:35:38;8.93;;;3.53;;
22287;SDS011;11312;51.464;6.968;2023-04-05T06:38:04;5.70;;;2.33;;
22287;SDS011;11312;51.464;6.968;2023-04-05T06:40:30;5.07;;;2.28;;
22287;SDS011;11312;51.464;6.968;2023-04-05T06:42:55;6.82;;;3.13;;
22287;SDS011;11312;51.464;6.968;2023-04-05T06:45:21;7.38;;;2.58;;
22287;SDS011;11312;51.464;6.968;2023-04-05T06:47:47;8.43;;;2.63;;
22287;SDS011;11312;51.464;6.968;2023-04-05T06:50:13;4.45;;;2.03;;
22287;SDS011;11312;51.464;6.968;2023-04-05T06:52:39;7.07;;;2.85;;
22287;SDS011;11312;51.464;6.968;2023-04-05T06:55:05;5.43;;;2.33;;
22287;SDS011;11312;51.464;6.968;2023-04-05T06:57:32;4.05;;;2.05;;
22287;SDS011;11312;51.464;6.968;2023-04-05T06:59:58;6.05;;;2.45;;
22287;SDS011;11312;51.464;6.968;2023-04-05T07:02:23;4.50;;;1.77;;
22287;SDS011;11312;51.464;6.968;2023-04-05T07:04:49;5.78;;;2.08;;
22287;SDS011;11312;51.464;6.968;2023-04-05T07:07:15;6.55;;;2.63;;
22287;SDS011;11312;51.464;6.968;2023-04-05T07:09:41;6.45;;;3.05;;
22287;SDS011;11312;51.464;6.968;2023-04-05T07:12:07;6.88;;;2.45;;
22287;SDS011;11312;51.464;6.968;2023-04-05T07:14:34;7.88;;;2.33;;
22287;SDS011;11312;51.464;6.968;2023-04-05T07:17:01;9.10;;;3.22;;
22287;SDS011;11312;51.464;6.968;2023-04-05T07:19:28;7.88;;;2.42;;
22287;SDS011;11312;51.464;6.968;2023-04-05T07:21:54;6.07;;;2.45;;
22287;SDS011;11312;51.464;6.968;2023-04-05T07:24:21;2.25;;;1.38;;
22287;SDS011;11312;51.464;6.968;2023-04-05T07:26:46;7.20;;;2.72;;
22287;SDS011;11312;51.464;6.968;2023-04-05T07:29:12;5.13;;;2.15;;
22287;SDS011;11312;51.464;6.968;2023-04-05T07:31:38;3.97;;;2.00;;
22287;SDS011;11312;51.464;6.968;2023-04-05T07:34:04;4.47;;;1.83;;
22287;SDS011;11312;51.464;6.968;2023-04-05T07:36:31;3.72;;;1.65;;
22287;SDS011;11312;51.464;6.968;2023-04-05T07:38:57;4.93;;;2.08;;
22287;SDS011;11312;51.464;6.968;2023-04-05T07:41:26;3.92;;;1.88;;
22287;SDS011;11312;51.464;6.968;2023-04-05T07:43:56;3.40;;;1.77;;
22287;SDS011;11312;51.464;6.968;2023-04-05T07:46:23;4.80;;;2.00;;
22287;SDS011;11312;51.464;6.968;2023-04-05T07:48:48;3.72;;;1.80;;
22287;SDS011;11312;51.464;6.968;2023-04-05T07:51:14;3.03;;;1.52;;
22287;SDS011;11312;51.464;6.968;2023-04-05T07:53:40;2.50;;;1.52;;
22287;SDS011;11312;51.464;6.968;2023-04-05T07:56:07;1.95;;;1.25;;
22287;SDS011;11312;51.464;6.968;2023-04-05T07:58:35;3.75;;;1.77;;
22287;SDS011;11312;51.464;6.968;2023-04-05T08:01:07;2.22;;;1.38;;
22287;SDS011;11312;51.464;6.968;2023-04-05T08:06:08;2.33;;;1.33;;
22287;SDS011;11312;51.464;6.968;2023-04-05T08:08:35;3.13;;;1.83;;
22287;SDS011;11312;51.464;6.968;2023-04-05T08:11:04;2.10;;;1.38;;
22287;SDS011;11312;51.464;6.968;2023-04-05T08:13:30;1.77;;;1.20;;
22287;SDS011;11312;51.464;6.968;2023-04-05T08:15:57;3.47;;;1.48;;
22287;SDS011;11312;51.464;6.968;2023-04-05T08:20:52;3.03;;;1.63;;
22287;SDS011;11312;51.464;6.968;2023-04-05T08:23:19;2.25;;;1.45;;
22287;SDS011;11312;51.464;6.968;2023-04-05T08:25:44;4.40;;;1.92;;
22287;SDS011;11312;51.464;6.968;2023-04-05T08:28:10;2.85;;;1.45;;
22287;SDS011;11312;51.464;6.968;2023-04-05T08:30:37;2.80;;;1.45;;
22287;SDS011;11312;51.464;6.968;2023-04-05T08:33:03;3.67;;;1.58;;
22287;SDS011;11312;51.464;6.968;2023-04-05T08:35:29;3.47;;;1.80;;
22287;SDS011;11312;51.464;6.968;2023-04-05T08:37:55;3.03;;;1.45;;
22287;SDS011;11312;51.464;6.968;2023-04-05T08:40:20;2.75;;;1.52;;
22287;SDS011;11312;51.464;6.968;2023-04-05T08:42:54;3.55;;;1.63;;
22287;SDS011;11312;51.464;6.968;2023-04-05T08:45:24;3.08;;;1.63;;
22287;SDS011;11312;51.464;6.968;2023-04-05T08:47:51;3.22;;;1.52;;
22287;SDS011;11312;51.464;6.968;2023-04-05T08:50:18;3.70;;;1.63;;
22287;SDS011;11312;51.464;6.968;2023-04-05T08:52:44;3.80;;;1.52;;
22287;SDS011;11312;51.464;6.968;2023-04-05T08:55:13;3.03;;;1.52;;
22287;SDS011;11312;51.464;6.968;2023-04-05T08:57:40;2.90;;;1.52;;
22287;SDS011;11312;51.464;6.968;2023-04-05T09:00:08;5.32;;;1.95;;
22287;SDS011;11312;51.464;6.968;2023-04-05T09:02:35;2.65;;;1.40;;
22287;SDS011;11312;51.464;6.968;2023-04-05T09:05:02;5.35;;;1.85;;
22287;SDS011;11312;51.464;6.968;2023-04-05T09:07:33;4.72;;;2.17;;
22287;SDS011;11312;51.464;6.968;2023-04-05T09:10:00;4.05;;;1.67;;
22287;SDS011;11312;51.464;6.968;2023-04-05T09:12:30;1.73;;;1.20;;
22287;SDS011;11312;51.464;6.968;2023-04-05T09:14:56;2.65;;;1.38;;
22287;SDS011;11312;51.464;6.968;2023-04-05T09:17:25;3.63;;;1.55;;
22287;SDS011;11312;51.464;6.968;2023-04-05T09:19:52;2.17;;;1.33;;
22287;SDS011;11312;51.464;6.968;2023-04-05T09:22:18;3.40;;;1.73;;
22287;SDS011;11312;51.464;6.968;2023-04-05T09:24:44;4.97;;;2.00;;
22287;SDS011;11312;51.464;6.968;2023-04-05T09:27:18;1.45;;;1.08;;
22287;SDS011;11312;51.464;6.968;2023-04-05T09:29:45;2.67;;;1.27;;
22287;SDS011;11312;51.464;6.968;2023-04-05T09:32:12;1.13;;;1.00;;
22287;SDS011;11312;51.464;6.968;2023-04-05T09:34:39;2.17;;;1.25;;
22287;SDS011;11312;51.464;6.968;2023-04-05T09:37:26;5.15;;;1.80;;
22287;SDS011;11312;51.464;6.968;2023-04-05T09:40:00;2.10;;;1.35;;
22287;SDS011;11312;51.464;6.968;2023-04-05T09:42:27;1.80;;;1.30;;
22287;SDS011;11312;51.464;6.968;2023-04-05T09:44:59;3.15;;;1.48;;
22287;SDS011;11312;51.464;6.968;2023-04-05T09:47:30;3.85;;;2.00;;
22287;SDS011;11312;51.464;6.968;2023-04-05T09:54:51;1.20;;;0.98;;
22287;SDS011;11312;51.464;6.968;2023-04-05T09:57:20;3.80;;;1.52;;
22287;SDS011;11312;51.464;6.968;2023-04-05T09:59:51;3.92;;;1.80;;
22287;SDS011;11312;51.464;6.968;2023-04-05T10:02:17;2.05;;;1.15;;
22287;SDS011;11312;51.464;6.968;2023-04-05T10:04:44;2.97;;;1.17;;
22287;SDS011;11312;51.464;6.968;2023-04-05T10:07:12;2.20;;;1.10;;
22287;SDS011;11312;51.464;6.968;2023-04-05T10:09:40;2.47;;;1.52;;
22287;SDS011;11312;51.464;6.968;2023-04-05T10:12:07;6.05;;;2.10;;
22287;SDS011;11312;51.464;6.968;2023-04-05T10:14:36;2.22;;;1.13;;
22287;SDS011;11312;51.464;6.968;2023-04-05T10:17:13;4.15;;;1.88;;
22287;SDS011;11312;51.464;6.968;2023-04-05T10:22:19;2.37;;;1.23;;
22287;SDS011;11312;51.464;6.968;2023-04-05T10:24:51;0.82;;;0.82;;
22287;SDS011;11312;51.464;6.968;2023-04-05T10:27:38;1.45;;;1.10;;
22287;SDS011;11312;51.464;6.968;2023-04-05T10:30:11;1.60;;;1.02;;
22287;SDS011;11312;51.464;6.968;2023-04-05T10:32:42;2.00;;;1.20;;
22287;SDS011;11312;51.464;6.968;2023-04-05T10:38:19;1.23;;;1.00;;
22287;SDS011;11312;51.464;6.968;2023-04-05T10:41:07;1.02;;;0.85;;
22287;SDS011;11312;51.464;6.968;2023-04-05T10:43:34;1.38;;;0.90;;
22287;SDS011;11312;51.464;6.968;2023-04-05T10:46:03;1.65;;;1.02;;
22287;SDS011;11312;51.464;6.968;2023-04-05T10:48:47;1.60;;;1.02;;
22287;SDS011;11312;51.464;6.968;2023-04-05T10:51:25;1.08;;;0.80;;
22287;SDS011;11312;51.464;6.968;2023-04-05T10:53:51;1.50;;;0.95;;
22287;SDS011;11312;51.464;6.968;2023-04-05T10:56:20;0.70;;;0.70;;
22287;SDS011;11312;51.464;6.968;2023-04-05T10:58:46;2.55;;;1.40;;
22287;SDS011;11312;51.464;6.968;2023-04-05T11:01:14;2.15;;;0.90;;
22287;SDS011;11312;51.464;6.968;2023-04-05T11:26:20;2.53;;;1.00;;
22287;SDS011;11312;51.464;6.968;2023-04-05T11:28:45;2.65;;;1.27;;
22287;SDS011;11312;51.464;6.968;2023-04-05T11:31:12;1.67;;;0.80;;
22287;SDS011;11312;51.464;6.968;2023-04-05T11:36:06;3.25;;;1.20;;
22287;SDS011;11312;51.464;6.968;2023-04-05T11:38:32;2.45;;;1.10;;
22287;SDS011;11312;51.464;6.968;2023-04-05T11:41:14;1.85;;;1.15;;
22287;SDS011;11312;51.464;6.968;2023-04-05T11:43:44;3.00;;;1.38;;
22287;SDS011;11312;51.464;6.968;2023-04-05T11:46:16;2.05;;;0.82;;
22287;SDS011;11312;51.464;6.968;2023-04-05T11:48:48;1.13;;;0.68;;
22287;SDS011;11312;51.464;6.968;2023-04-05T11:51:14;2.40;;;0.93;;
22287;SDS011;11312;51.464;6.968;2023-04-05T11:53:45;1.30;;;0.70;;
22287;SDS011;11312;51.464;6.968;2023-04-05T11:56:11;1.98;;;0.85;;
22287;SDS011;11312;51.464;6.968;2023-04-05T11:58:40;0.60;;;0.60;;
22287;SDS011;11312;51.464;6.968;2023-04-05T12:01:06;2.13;;;1.00;;
22287;SDS011;11312;51.464;6.968;2023-04-05T12:03:33;0.73;;;0.73;;
22287;SDS011;11312;51.464;6.968;2023-04-05T12:06:02;0.63;;;0.63;;
22287;SDS011;11312;51.464;6.968;2023-04-05T12:08:42;2.28;;;1.13;;
22287;SDS011;11312;51.464;6.968;2023-04-05T12:11:15;0.88;;;0.80;;
22287;SDS011;11312;51.464;6.968;2023-04-05T12:13:50;1.25;;;0.80;;
22287;SDS011;11312;51.464;6.968;2023-04-05T12:16:27;1.92;;;0.93;;
22287;SDS011;11312;51.464;6.968;2023-04-05T12:18:53;0.60;;;0.60;;
22287;SDS011;11312;51.464;6.968;2023-04-05T12:21:20;2.15;;;1.00;;
22287;SDS011;11312;51.464;6.968;2023-04-05T12:23:46;2.60;;;1.30;;
22287;SDS011;11312;51.464;6.968;2023-04-05T12:26:12;1.40;;;0.70;;
22287;SDS011;11312;51.464;6.968;2023-04-05T12:28:48;2.20;;;1.15;;
22287;SDS011;11312;51.464;6.968;2023-04-05T12:31:15;0.90;;;0.73;;
22287;SDS011;11312;51.464;6.968;2023-04-05T12:33:41;4.30;;;1.30;;
22287;SDS011;11312;51.464;6.968;2023-04-05T12:36:08;10.63;;;2.10;;
22287;SDS011;11312;51.464;6.968;2023-04-05T12:38:35;1.60;;;0.80;;
22287;SDS011;11312;51.464;6.968;2023-04-05T12:41:02;1.30;;;0.82;;
22287;SDS011;11312;51.464;6.968;2023-04-05T12:43:41;1.08;;;0.77;;
22287;SDS011;11312;51.464;6.968;2023-04-05T12:46:10;1.60;;;0.95;;
22287;SDS011;11312;51.464;6.968;2023-04-05T12:48:40;1.48;;;0.90;;
22287;SDS011;11312;51.464;6.968;2023-04-05T12:51:12;5.50;;;1.75;;
22287;SDS011;11312;51.464;6.968;2023-04-05T12:53:43;3.40;;;1.25;;
22287;SDS011;11312;51.464;6.968;2023-04-05T12:56:12;2.35;;;1.08;;
22287;SDS011;11312;51.464;6.968;2023-04-05T12:58:39;5.35;;;1.27;;
22287;SDS011;11312;51.464;6.968;2023-04-05T13:01:05;4.00;;;1.50;;
22287;SDS011;11312;51.464;6.968;2023-04-05T13:03:31;2.10;;;1.00;;
22287;SDS011;11312;51.464;6.968;2023-04-05T13:05:56;2.70;;;1.23;;
22287;SDS011;11312;51.464;6.968;2023-04-05T13:08:25;1.52;;;0.88;;
22287;SDS011;11312;51.464;6.968;2023-04-05T13:10:51;2.20;;;1.08;;
22287;SDS011;11312;51.464;6.968;2023-04-05T13:13:17;5.55;;;1.73;;
22287;SDS011;11312;51.464;6.968;2023-04-05T13:15:45;1.42;;;0.93;;
22287;SDS011;11312;51.464;6.968;2023-04-05T13:18:11;4.82;;;1.10;;
22287;SDS011;11312;51.464;6.968;2023-04-05T13:20:39;1.02;;;0.80;;
22287;SDS011;11312;51.464;6.968;2023-04-05T13:23:07;1.10;;;0.73;;
22287;SDS011;11312;51.464;6.968;2023-04-05T13:25:36;2.65;;;1.20;;
22287;SDS011;11312;51.464;6.968;2023-04-05T13:28:06;1.13;;;0.82;;
22287;SDS011;11312;51.464;6.968;2023-04-05T13:30:32;0.60;;;0.60;;
22287;SDS011;11312;51.464;6.968;2023-04-05T13:32:58;3.97;;;1.48;;
22287;SDS011;11312;51.464;6.968;2023-04-05T13:35:24;0.70;;;0.70;;
22287;SDS011;11312;51.464;6.968;2023-04-05T13:37:49;2.47;;;1.13;;
22287;SDS011;11312;51.464;6.968;2023-04-05T13:40:15;2.83;;;1.30;;
22287;SDS011;11312;51.464;6.968;2023-04-05T13:42:41;1.67;;;1.08;;
22287;SDS011;11312;51.464;6.968;2023-04-05T13:45:07;5.88;;;1.35;;
22287;SDS011;11312;51.464;6.968;2023-04-05T13:47:33;1.75;;;0.95;;
22287;SDS011;11312;51.464;6.968;2023-04-05T13:49:59;16.73;;;2.72;;
22287;SDS011;11312;51.464;6.968;2023-04-05T13:52:26;2.78;;;1.00;;
22287;SDS011;11312;51.464;6.968;2023-04-05T13:54:52;3.92;;;1.25;;
22287;SDS011;11312;51.464;6.968;2023-04-05T13:57:18;2.15;;;1.33;;
22287;SDS011;11312;51.464;6.968;2023-04-05T13:59:43;1.00;;;0.80;;
22287;SDS011;11312;51.464;6.968;2023-04-05T14:02:09;2.80;;;0.93;;
22287;SDS011;11312;51.464;6.968;2023-04-05T14:04:36;1.95;;;1.10;;
22287;SDS011;11312;51.464;6.968;2023-04-05T14:07:03;0.80;;;0.80;;
22287;SDS011;11312;51.464;6.968;2023-04-05T14:09:30;0.93;;;0.90;;
22287;SDS011;11312;51.464;6.968;2023-04-05T14:11:57;2.53;;;1.30;;
22287;SDS011;11312;51.464;6.968;2023-04-05T14:14:23;0.90;;;0.90;;
22287;SDS011;11312;51.464;6.968;2023-04-05T14:16:49;3.13;;;1.48;;
22287;SDS011;11312;51.464;6.968;2023-04-05T14:19:14;2.90;;;1.25;;
22287;SDS011;11312;51.464;6.968;2023-04-05T14:21:40;1.75;;;1.20;;
22287;SDS011;11312;51.464;6.968;2023-04-05T14:24:06;1.92;;;1.10;;
22287;SDS011;11312;51.464;6.968;2023-04-05T14:26:32;1.30;;;0.93;;
22287;SDS011;11312;51.464;6.968;2023-04-05T14:28:58;3.05;;;1.35;;
22287;SDS011;11312;51.464;6.968;2023-04-05T14:31:23;2.10;;;1.30;;
22287;SDS011;11312;51.464;6.968;2023-04-05T14:33:50;1.58;;;1.20;;
22287;SDS011;11312;51.464;6.968;2023-04-05T14:36:16;3.13;;;1.55;;
22287;SDS011;11312;51.464;6.968;2023-04-05T14:38:41;1.67;;;1.13;;
22287;SDS011;11312;51.464;6.968;2023-04-05T14:41:07;1.55;;;1.13;;
22287;SDS011;11312;51.464;6.968;2023-04-05T14:43:34;2.97;;;1.42;;
22287;SDS011;11312;51.464;6.968;2023-04-05T14:46:01;1.90;;;1.27;;
22287;SDS011;11312;51.464;6.968;2023-04-05T14:48:27;2.83;;;1.52;;
22287;SDS011;11312;51.464;6.968;2023-04-05T15:03:03;2.67;;;1.35;;
22287;SDS011;11312;51.464;6.968;2023-04-05T15:05:28;3.03;;;1.55;;
22287;SDS011;11312;51.464;6.968;2023-04-05T15:07:54;2.25;;;1.20;;
22287;SDS011;11312;51.464;6.968;2023-04-05T15:10:20;1.33;;;1.10;;
22287;SDS011;11312;51.464;6.968;2023-04-05T15:12:46;3.38;;;2.00;;
22287;SDS011;11312;51.464;6.968;2023-04-05T15:15:12;2.55;;;1.30;;
22287;SDS011;11312;51.464;6.968;2023-04-05T15:17:37;2.17;;;1.48;;
22287;SDS011;11312;51.464;6.968;2023-04-05T15:20:03;2.67;;;1.45;;
22287;SDS011;11312;51.464;6.968;2023-04-05T15:22:29;1.90;;;1.30;;
22287;SDS011;11312;51.464;6.968;2023-04-05T15:24:55;1.85;;;1.35;;
22287;SDS011;11312;51.464;6.968;2023-04-05T15:27:21;1.35;;;1.13;;
22287;SDS011;11312;51.464;6.968;2023-04-05T15:32:12;2.05;;;1.38;;
22287;SDS011;11312;51.464;6.968;2023-04-05T15:34:37;2.30;;;1.35;;
22287;SDS011;11312;51.464;6.968;2023-04-05T15:37:05;3.20;;;1.85;;
22287;SDS011;11312;51.464;6.968;2023-04-05T15:39:31;3.42;;;1.75;;
22287;SDS011;11312;51.464;6.968;2023-04-05T15:41:57;11.73;;;2.05;;
22287;SDS011;11312;51.464;6.968;2023-04-05T15:44:23;4.55;;;2.22;;
22287;SDS011;11312;51.464;6.968;2023-04-05T15:46:51;2.55;;;1.38;;
22287;SDS011;11312;51.464;6.968;2023-04-05T15:49:17;3.92;;;1.52;;
22287;SDS011;11312;51.464;6.968;2023-04-05T15:51:43;3.85;;;1.90;;
22287;SDS011;11312;51.464;6.968;2023-04-05T15:54:08;2.53;;;1.40;;
22287;SDS011;11312;51.464;6.968;2023-04-05T15:56:34;2.42;;;1.40;;